createdAt,value
2023-06-26T00:00:58.059Z,25.00
2023-06-26T00:03:25.361Z,25.10
2023-06-26T00:05:52.682Z,25.40
2023-06-26T00:08:19.920Z,25.80
2023-06-26T00:10:47.513Z,25.90
2023-06-26T00:13:14.783Z,26.10
2023-06-26T00:15:42.033Z,26.00
2023-06-26T00:18:09.315Z,26.00
2023-06-26T00:20:36.856Z,26.20
2023-06-26T00:23:08.665Z,25.90
2023-06-26T00:25:36.108Z,25.60
2023-06-26T00:28:03.601Z,25.70
2023-06-26T00:30:30.814Z,25.90
2023-06-26T00:32:58.094Z,26.10
2023-06-26T00:35:25.327Z,25.80
2023-06-26T00:37:52.613Z,26.00
2023-06-26T00:40:20.917Z,26.00
2023-06-26T00:42:48.156Z,26.10
2023-06-26T00:45:15.709Z,26.20
2023-06-26T00:47:43.487Z,26.10
2023-06-26T00:50:10.975Z,26.10
2023-06-26T00:52:38.893Z,26.10
2023-06-26T00:55:06.479Z,26.10
2023-06-26T00:57:33.993Z,26.00
2023-06-26T01:00:02.823Z,26.10
2023-06-26T01:02:34.369Z,26.10
2023-06-26T01:05:04.648Z,26.10
2023-06-26T01:07:33.289Z,26.10
2023-06-26T01:10:00.679Z,26.10
2023-06-26T01:12:27.954Z,26.00
2023-06-26T01:14:55.284Z,26.10
2023-06-26T01:17:22.651Z,26.10
2023-06-26T01:19:50.685Z,26.20
2023-06-26T01:22:35.255Z,26.10
2023-06-26T01:25:39.524Z,25.90
2023-06-26T01:28:07.801Z,25.90
2023-06-26T01:30:37.318Z,25.70
2023-06-26T01:33:05.175Z,25.60
2023-06-26T01:35:32.890Z,25.40
2023-06-26T01:42:14.628Z,25.10
2023-06-26T01:45:13.207Z,25.20
2023-06-26T01:48:13.178Z,25.30
2023-06-26T01:51:13.595Z,25.50
2023-06-26T01:57:15.284Z,25.60
2023-06-26T01:59:43.850Z,25.40
2023-06-26T02:02:11.291Z,25.70
2023-06-26T02:04:38.559Z,25.40
2023-06-26T02:07:05.940Z,25.10
2023-06-26T02:09:33.289Z,25.40
2023-06-26T02:12:00.510Z,25.10
2023-06-26T02:14:27.796Z,25.10
2023-06-26T02:16:55.029Z,25.20
2023-06-26T02:19:22.669Z,25.70
2023-06-26T02:21:53.050Z,25.60
2023-06-26T02:24:20.317Z,25.60
2023-06-26T02:26:47.568Z,25.60
2023-06-26T02:29:14.866Z,25.50
2023-06-26T02:31:42.263Z,25.60
2023-06-26T02:34:10.800Z,25.60
2023-06-26T02:36:38.007Z,25.80
2023-06-26T02:39:05.526Z,25.70
2023-06-26T02:41:32.777Z,25.80
2023-06-26T02:44:00.067Z,25.90
2023-06-26T02:46:27.354Z,25.90
2023-06-26T02:48:54.626Z,25.90
2023-06-26T02:51:21.873Z,25.80
2023-06-26T02:53:49.075Z,25.90
2023-06-26T02:56:16.319Z,25.80
2023-06-26T02:58:43.557Z,25.90
2023-06-26T03:01:10.857Z,26.00
2023-06-26T03:03:41.681Z,25.80
2023-06-26T03:06:09.609Z,25.90
2023-06-26T03:08:38.767Z,25.90
2023-06-26T03:11:09.248Z,25.80
2023-06-26T03:13:37.233Z,25.80
2023-06-26T03:16:05.194Z,25.80
2023-06-26T03:18:32.485Z,25.80
2023-06-26T03:21:00.821Z,25.80
2023-06-26T03:23:28.103Z,25.70
2023-06-26T03:25:55.370Z,25.60
2023-06-26T03:28:22.597Z,25.70
2023-06-26T03:30:49.856Z,25.80
2023-06-26T03:33:17.141Z,25.70
2023-06-26T03:35:44.425Z,25.60
2023-06-26T03:38:11.720Z,25.60
2023-06-26T03:40:39.202Z,25.80
2023-06-26T03:43:06.702Z,25.70
2023-06-26T03:45:33.982Z,25.70
2023-06-26T03:48:01.326Z,25.80
2023-06-26T03:50:28.765Z,25.70
2023-06-26T03:52:56.023Z,25.80
2023-06-26T03:55:24.692Z,25.70
2023-06-26T03:57:52.002Z,25.80
2023-06-26T04:00:19.348Z,25.80
2023-06-26T04:02:46.646Z,25.80
2023-06-26T04:05:13.967Z,25.80
2023-06-26T04:07:41.249Z,25.70
2023-06-26T04:10:08.943Z,25.80
2023-06-26T04:12:36.174Z,25.80
2023-06-26T04:15:03.754Z,25.70
2023-06-26T04:17:31.040Z,25.80
2023-06-26T04:19:58.376Z,25.70
2023-06-26T04:22:26.821Z,25.50
2023-06-26T04:24:54.091Z,25.60
2023-06-26T04:27:21.360Z,25.70
2023-06-26T04:29:48.545Z,25.80
2023-06-26T04:32:15.765Z,25.30
2023-06-26T04:34:46.002Z,25.70
2023-06-26T04:37:17.478Z,25.90
2023-06-26T04:39:44.858Z,25.80
2023-06-26T04:42:14.984Z,25.80
2023-06-26T04:44:42.454Z,25.80
2023-06-26T04:47:10.418Z,25.80
2023-06-26T04:49:39.357Z,25.70
2023-06-26T04:52:06.901Z,25.70
2023-06-26T04:54:34.113Z,25.10
2023-06-26T04:57:01.349Z,25.80
2023-06-26T04:59:28.630Z,25.70
2023-06-26T05:01:55.941Z,25.60
2023-06-26T05:04:23.819Z,25.30
2023-06-26T05:06:51.298Z,25.40
2023-06-26T05:09:18.507Z,25.60
2023-06-26T05:11:45.855Z,25.80
2023-06-26T05:14:14.426Z,25.80
2023-06-26T05:16:41.708Z,25.70
2023-06-26T05:19:08.912Z,25.40
2023-06-26T05:21:36.524Z,25.20
2023-06-26T05:24:04.613Z,25.20
2023-06-26T05:26:32.027Z,25.50
2023-06-26T05:28:59.433Z,25.70
2023-06-26T05:31:27.035Z,25.30
2023-06-26T05:33:55.505Z,25.70
2023-06-26T05:36:23.986Z,25.50
2023-06-26T05:38:51.640Z,25.40
2023-06-26T05:41:19.131Z,25.30
2023-06-26T05:43:46.336Z,25.70
2023-06-26T05:46:13.559Z,25.10
2023-06-26T05:48:40.838Z,25.40
2023-06-26T05:51:08.628Z,25.50
2023-06-26T05:53:36.141Z,25.40
2023-06-26T05:56:03.595Z,25.50
2023-06-26T05:58:32.039Z,25.50
2023-06-26T06:00:59.241Z,25.50
2023-06-26T06:03:26.611Z,25.60
2023-06-26T06:05:53.918Z,25.60
2023-06-26T06:08:21.144Z,26.00
2023-06-26T06:10:48.372Z,25.70
2023-06-26T06:13:15.608Z,25.40
2023-06-26T06:15:42.866Z,25.30
2023-06-26T06:18:10.151Z,25.10
2023-06-26T06:20:38.190Z,25.50
2023-06-26T06:23:05.869Z,25.30
2023-06-26T06:25:33.099Z,25.20
2023-06-26T06:28:00.311Z,25.20
2023-06-26T06:30:43.441Z,25.40
2023-06-26T06:33:11.994Z,25.70
2023-06-26T06:35:39.281Z,25.60
2023-06-26T06:38:06.750Z,25.70
2023-06-26T06:40:34.054Z,25.70
2023-06-26T06:43:01.330Z,25.80
2023-06-26T06:45:28.655Z,25.90
2023-06-26T06:47:55.952Z,25.50
2023-06-26T06:50:23.183Z,25.70
2023-06-26T06:52:50.410Z,25.30
2023-06-26T06:55:17.644Z,26.10
2023-06-26T06:57:44.856Z,26.00
2023-06-26T07:00:14.880Z,25.90
2023-06-26T07:02:47.395Z,26.30
2023-06-26T07:05:14.746Z,25.70
2023-06-26T07:07:42.193Z,26.40
2023-06-26T07:10:11.647Z,25.40
2023-06-26T07:12:38.950Z,26.10
2023-06-26T07:15:07.519Z,26.20
2023-06-26T07:17:35.495Z,26.20
2023-06-26T07:20:07.365Z,26.30
2023-06-26T07:22:35.041Z,26.30
2023-06-26T07:25:02.470Z,26.20
2023-06-26T07:27:29.976Z,26.30
2023-06-26T07:29:57.229Z,26.40
2023-06-26T07:32:24.543Z,26.60
2023-06-26T07:34:51.802Z,26.60
2023-06-26T07:37:19.085Z,26.90
2023-06-26T07:39:46.297Z,26.80
2023-06-26T07:42:13.592Z,26.90
2023-06-26T07:44:42.550Z,26.90
2023-06-26T07:47:10.310Z,26.80
2023-06-26T07:49:37.622Z,27.00
2023-06-26T07:52:05.435Z,27.70
2023-06-26T07:54:32.758Z,27.70
2023-06-26T07:57:07.842Z,27.30
2023-06-26T07:59:35.868Z,26.90
2023-06-26T08:02:03.431Z,27.10
2023-06-26T08:04:33.343Z,27.10
2023-06-26T08:07:01.450Z,27.10
2023-06-26T08:09:30.176Z,27.00
2023-06-26T08:11:57.946Z,27.20
2023-06-26T08:14:25.405Z,26.80
2023-06-26T08:16:52.794Z,27.50
2023-06-26T08:19:20.381Z,27.00
2023-06-26T08:21:48.283Z,28.00
2023-06-26T08:24:19.781Z,28.10
2023-06-26T08:26:48.661Z,28.10
2023-06-26T08:29:16.274Z,28.60
2023-06-26T08:31:44.714Z,29.00
2023-06-26T08:34:12.200Z,29.00
2023-06-26T08:36:39.966Z,28.60
2023-06-26T08:39:07.386Z,28.50
2023-06-26T08:41:46.784Z,28.40
2023-06-26T08:44:14.077Z,28.30
2023-06-26T08:46:41.594Z,28.20
2023-06-26T08:49:21.734Z,28.30
2023-06-26T08:52:12.248Z,28.00
2023-06-26T08:54:45.361Z,28.70
2023-06-26T08:57:13.331Z,29.20
2023-06-26T08:59:40.682Z,30.30
2023-06-26T09:02:08.793Z,29.50
2023-06-26T09:04:37.001Z,30.60
2023-06-26T09:07:04.606Z,30.40
2023-06-26T09:09:31.908Z,30.10
2023-06-26T09:11:59.140Z,31.10
2023-06-26T09:14:26.497Z,32.20
2023-06-26T09:16:53.955Z,32.10
2023-06-26T09:19:21.435Z,30.90
2023-06-26T09:21:51.905Z,30.60
2023-06-26T09:24:19.234Z,31.10
2023-06-26T09:26:46.434Z,31.10
2023-06-26T09:29:14.169Z,32.20
2023-06-26T09:31:43.057Z,31.80
2023-06-26T09:34:11.455Z,31.80
2023-06-26T09:36:40.626Z,31.80
2023-06-26T09:39:12.301Z,32.50
2023-06-26T09:41:41.862Z,31.40
2023-06-26T09:44:12.732Z,31.20
2023-06-26T09:46:40.716Z,30.50
2023-06-26T09:49:12.654Z,29.90
2023-06-26T09:51:41.984Z,29.90
2023-06-26T09:54:13.060Z,29.20
2023-06-26T09:56:40.381Z,28.90
2023-06-26T09:59:08.382Z,29.10
2023-06-26T10:01:40.952Z,28.90
2023-06-26T10:04:08.403Z,29.10
2023-06-26T10:06:38.258Z,28.90
2023-06-26T10:09:06.378Z,29.00
2023-06-26T10:11:48.338Z,28.70
2023-06-26T10:14:18.097Z,29.40
2023-06-26T10:16:47.587Z,29.70
2023-06-26T10:19:17.448Z,29.50
2023-06-26T10:21:44.912Z,29.50
2023-06-26T10:24:14.438Z,29.30
2023-06-26T10:26:45.306Z,29.10
2023-06-26T10:29:14.103Z,29.30
2023-06-26T10:31:46.832Z,29.00
2023-06-26T10:34:14.526Z,29.20
2023-06-26T10:36:42.881Z,29.40
2023-06-26T10:39:10.522Z,29.60
2023-06-26T10:41:46.429Z,29.20
2023-06-26T10:44:21.853Z,29.70
2023-06-26T10:46:54.045Z,29.70
2023-06-26T10:49:22.175Z,30.30
2023-06-26T10:51:53.085Z,30.20
2023-06-26T10:54:23.241Z,30.20
2023-06-26T10:56:59.241Z,30.50
2023-06-26T10:59:37.274Z,30.10
2023-06-26T11:02:13.690Z,30.10
2023-06-26T11:04:57.526Z,30.60
2023-06-26T11:07:36.329Z,30.80
2023-06-26T11:10:19.531Z,30.90
2023-06-26T11:12:55.684Z,30.60
2023-06-26T11:15:32.384Z,30.50
2023-06-26T11:18:07.143Z,30.50
2023-06-26T11:20:34.430Z,30.70
2023-06-26T11:23:01.834Z,30.50
2023-06-26T11:25:29.124Z,30.80
2023-06-26T11:27:56.361Z,30.70
2023-06-26T11:30:27.201Z,30.40
2023-06-26T11:32:55.557Z,30.40
2023-06-26T11:35:31.058Z,29.80
2023-06-26T11:38:03.952Z,30.10
2023-06-26T11:40:37.374Z,29.80
2023-06-26T11:43:05.292Z,29.80
2023-06-26T11:45:33.521Z,30.10
2023-06-26T11:48:01.710Z,30.40
2023-06-26T11:50:29.360Z,30.10
2023-06-26T11:52:57.744Z,29.80
2023-06-26T11:55:26.063Z,29.50
2023-06-26T11:57:59.185Z,29.70
2023-06-26T12:00:26.631Z,29.80
2023-06-26T12:02:54.710Z,30.10
2023-06-26T12:05:22.227Z,29.80
2023-06-26T12:07:50.438Z,30.30
2023-06-26T12:10:22.826Z,29.80
2023-06-26T12:12:50.093Z,30.10
2023-06-26T12:15:17.802Z,29.80
2023-06-26T12:17:45.212Z,30.00
2023-06-26T12:20:22.973Z,30.60
2023-06-26T12:22:50.883Z,30.70
2023-06-26T12:25:26.077Z,31.10
2023-06-26T12:27:53.385Z,30.40
2023-06-26T12:30:20.661Z,30.20
2023-06-26T12:32:48.258Z,30.90
2023-06-26T12:35:17.078Z,30.80
2023-06-26T12:37:45.823Z,30.90
2023-06-26T12:40:25.198Z,30.90
2023-06-26T12:42:52.828Z,31.10
2023-06-26T12:47:51.483Z,31.00
2023-06-26T12:50:18.795Z,31.00
2023-06-26T12:52:46.062Z,31.20
2023-06-26T12:55:13.296Z,31.30
2023-06-26T12:57:40.617Z,31.40
2023-06-26T13:00:08.493Z,31.50
2023-06-26T13:02:35.800Z,31.60
2023-06-26T13:05:04.668Z,31.30
2023-06-26T13:07:32.071Z,31.70
2023-06-26T13:09:59.427Z,31.90
2023-06-26T13:12:26.682Z,31.60
2023-06-26T13:14:53.917Z,32.00
2023-06-26T13:17:21.438Z,31.40
2023-06-26T13:19:48.722Z,31.90
2023-06-26T13:22:15.945Z,30.60
2023-06-26T13:24:43.207Z,30.50
2023-06-26T13:27:10.450Z,30.90
2023-06-26T13:29:37.736Z,31.10
2023-06-26T13:32:05.334Z,31.50
2023-06-26T13:34:32.649Z,31.00
2023-06-26T13:37:01.254Z,31.20
2023-06-26T13:39:28.666Z,31.30
2023-06-26T13:41:55.916Z,31.40
2023-06-26T13:44:31.928Z,31.60
2023-06-26T13:47:03.394Z,31.80
2023-06-26T13:49:30.895Z,31.40
2023-06-26T13:51:58.115Z,31.30
2023-06-26T13:54:25.332Z,30.50
2023-06-26T13:56:52.554Z,31.30
2023-06-26T13:59:21.825Z,31.50
2023-06-26T14:01:50.576Z,31.00
2023-06-26T14:04:17.879Z,31.20
2023-06-26T14:06:46.401Z,31.10
2023-06-26T14:09:13.690Z,30.80
2023-06-26T14:11:40.972Z,30.50
2023-06-26T14:14:08.237Z,30.70
2023-06-26T14:16:35.592Z,31.00
2023-06-26T14:19:02.952Z,30.80
2023-06-26T14:21:30.431Z,30.50
2023-06-26T14:23:57.714Z,30.50
2023-06-26T14:26:25.015Z,30.80
2023-06-26T14:28:52.229Z,30.70
2023-06-26T14:31:19.600Z,30.70
2023-06-26T14:33:46.869Z,30.70
2023-06-26T14:36:14.117Z,30.40
2023-06-26T14:38:41.330Z,30.20
2023-06-26T14:41:09.364Z,30.20
2023-06-26T14:43:37.178Z,30.60
2023-06-26T14:46:04.936Z,30.40
2023-06-26T14:48:32.799Z,30.60
2023-06-26T14:51:01.313Z,30.60
2023-06-26T14:53:28.586Z,30.40
2023-06-26T14:55:56.176Z,30.70
2023-06-26T14:58:23.905Z,30.40
2023-06-26T15:00:51.147Z,30.10
2023-06-26T15:03:18.575Z,30.00
2023-06-26T15:05:45.919Z,30.40
2023-06-26T15:08:13.162Z,30.20
2023-06-26T15:10:40.682Z,30.30
2023-06-26T15:13:08.768Z,31.00
2023-06-26T15:15:36.044Z,30.90
2023-06-26T15:18:03.348Z,30.90
2023-06-26T15:20:30.669Z,30.90
2023-06-26T15:22:59.240Z,31.90
2023-06-26T15:25:26.546Z,32.30
2023-06-26T15:27:53.825Z,32.40
2023-06-26T15:30:21.081Z,32.00
2023-06-26T15:32:48.585Z,32.80
2023-06-26T15:35:15.905Z,32.30
2023-06-26T15:37:43.132Z,32.30
2023-06-26T15:40:12.117Z,31.90
2023-06-26T15:42:53.812Z,31.00
2023-06-26T15:45:25.366Z,30.90
2023-06-26T15:47:53.287Z,30.10
2023-06-26T15:50:21.559Z,30.70
2023-06-26T15:52:49.560Z,30.20
2023-06-26T15:55:17.186Z,29.70
2023-06-26T15:57:44.577Z,29.90
2023-06-26T16:00:13.317Z,30.00
2023-06-26T16:02:40.934Z,30.20
2023-06-26T16:05:08.814Z,30.20
2023-06-26T16:07:51.654Z,29.60
2023-06-26T16:10:23.657Z,29.80
2023-06-26T16:12:50.949Z,29.80
2023-06-26T16:15:18.182Z,29.70
2023-06-26T16:17:45.425Z,29.40
2023-06-26T16:20:12.911Z,29.50
2023-06-26T16:22:40.953Z,29.50
2023-06-26T16:25:08.720Z,29.20
2023-06-26T16:27:35.970Z,29.40
2023-06-26T16:30:03.299Z,28.60
2023-06-26T16:32:30.594Z,28.70
2023-06-26T16:34:57.932Z,28.70
2023-06-26T16:37:25.177Z,28.70
2023-06-26T16:39:52.870Z,28.80
2023-06-26T16:42:21.454Z,28.90
2023-06-26T16:44:48.757Z,28.50
2023-06-26T16:47:19.764Z,28.20
2023-06-26T16:49:47.281Z,28.30
2023-06-26T16:52:15.595Z,28.40
2023-06-26T16:54:42.832Z,28.40
2023-06-26T16:57:10.079Z,28.50
2023-06-26T16:59:37.369Z,28.40
2023-06-26T17:02:05.752Z,28.50
2023-06-26T17:04:32.992Z,28.50
2023-06-26T17:07:00.356Z,28.70
2023-06-26T17:09:27.678Z,28.30
2023-06-26T17:11:54.912Z,28.00
2023-06-26T17:14:22.144Z,28.30
2023-06-26T17:16:49.429Z,28.00
2023-06-26T17:19:16.646Z,27.90
2023-06-26T17:21:48.438Z,28.10
2023-06-26T17:24:16.075Z,28.20
2023-06-26T17:26:44.365Z,28.40
2023-06-26T17:29:11.607Z,28.20
2023-06-26T17:31:41.296Z,27.80
2023-06-26T17:34:09.159Z,27.80
2023-06-26T17:36:36.463Z,27.70
2023-06-26T17:39:04.532Z,27.70
2023-06-26T17:41:31.965Z,27.80
2023-06-26T17:43:59.179Z,27.70
2023-06-26T17:46:26.591Z,27.60
2023-06-26T17:48:55.323Z,28.10
2023-06-26T17:51:22.810Z,27.80
2023-06-26T17:53:51.938Z,27.70
2023-06-26T17:56:19.370Z,28.00
2023-06-26T17:58:48.183Z,27.30
2023-06-26T18:01:15.561Z,27.60
2023-06-26T18:03:43.030Z,27.30
2023-06-26T18:06:10.369Z,27.40
2023-06-26T18:08:37.689Z,27.70
2023-06-26T18:11:04.966Z,27.10
2023-06-26T18:13:33.084Z,27.20
2023-06-26T18:16:00.909Z,27.30
2023-06-26T18:18:28.174Z,27.20
2023-06-26T18:20:55.403Z,27.00
2023-06-26T18:23:22.732Z,27.00
2023-06-26T18:25:49.969Z,27.00
2023-06-26T18:28:17.226Z,26.40
2023-06-26T18:30:44.463Z,26.20
2023-06-26T18:33:11.674Z,26.60
2023-06-26T18:35:39.334Z,25.90
2023-06-26T18:38:09.947Z,25.70
2023-06-26T18:40:37.259Z,25.60
2023-06-26T18:43:05.022Z,25.70
2023-06-26T18:45:33.364Z,25.70
2023-06-26T18:48:00.759Z,25.90
2023-06-26T18:50:29.444Z,25.70
2023-06-26T18:52:56.684Z,25.70
2023-06-26T18:55:23.927Z,25.50
2023-06-26T18:57:51.495Z,25.30
2023-06-26T19:00:19.570Z,25.60
2023-06-26T19:02:47.737Z,25.30
2023-06-26T19:05:20.478Z,25.30
2023-06-26T19:07:48.298Z,25.00
2023-06-26T19:10:17.674Z,25.40
2023-06-26T19:12:47.695Z,25.60
2023-06-26T19:15:15.016Z,25.40
2023-06-26T19:17:42.395Z,25.50
2023-06-26T19:20:10.090Z,25.00
2023-06-26T19:22:37.430Z,25.30
2023-06-26T19:25:05.094Z,25.50
2023-06-26T19:27:32.476Z,25.80
2023-06-26T19:29:59.758Z,24.60
2023-06-26T19:32:27.061Z,24.50
2023-06-26T19:34:54.314Z,24.70
2023-06-26T19:37:21.557Z,24.30
2023-06-26T19:39:48.799Z,24.50
2023-06-26T19:42:16.299Z,24.90
2023-06-26T19:44:43.562Z,24.60
2023-06-26T19:47:10.869Z,24.40
2023-06-26T19:49:38.130Z,24.70
2023-06-26T19:52:05.723Z,24.60
2023-06-26T19:54:32.926Z,24.50
2023-06-26T19:57:00.158Z,24.00
2023-06-26T19:59:28.664Z,24.10
2023-06-26T20:01:56.196Z,23.80
2023-06-26T20:04:23.763Z,23.90
2023-06-26T20:06:51.161Z,23.80
2023-06-26T20:09:18.438Z,23.70
2023-06-26T20:11:45.703Z,24.10
2023-06-26T20:14:12.950Z,23.70
2023-06-26T20:16:40.205Z,23.60
2023-06-26T20:19:07.669Z,23.40
2023-06-26T20:21:35.000Z,23.50
2023-06-26T20:24:02.278Z,23.60
2023-06-26T20:26:29.506Z,23.70
2023-06-26T20:28:56.732Z,23.60
2023-06-26T20:31:25.599Z,23.60
2023-06-26T20:33:52.824Z,23.10
2023-06-26T20:36:20.172Z,23.00
2023-06-26T20:38:47.400Z,22.90
2023-06-26T20:41:14.802Z,23.20
2023-06-26T20:43:43.007Z,23.20
2023-06-26T20:46:10.769Z,22.90
2023-06-26T20:48:38.165Z,22.70
2023-06-26T20:51:05.694Z,23.10
2023-06-26T20:53:33.116Z,23.20
2023-06-26T20:56:01.013Z,23.10
2023-06-26T20:58:28.263Z,23.10
2023-06-26T21:00:55.515Z,23.00
2023-06-26T21:03:22.847Z,23.30
2023-06-26T21:05:50.194Z,23.10
2023-06-26T21:08:17.409Z,22.60
2023-06-26T21:10:44.901Z,22.60
2023-06-26T21:13:12.132Z,22.50
2023-06-26T21:15:40.028Z,22.30
2023-06-26T21:18:07.506Z,22.10
2023-06-26T21:20:34.802Z,22.20
2023-06-26T21:23:02.016Z,22.00
2023-06-26T21:25:29.312Z,21.70
2023-06-26T21:27:56.539Z,22.10
2023-06-26T21:30:23.813Z,22.00
2023-06-26T21:32:51.098Z,21.90
2023-06-26T21:35:43.014Z,21.80
2023-06-26T21:38:07.237Z,21.90
2023-06-26T21:40:34.530Z,22.10
2023-06-26T21:43:01.740Z,22.00
2023-06-26T21:45:29.054Z,22.00
2023-06-26T21:47:56.288Z,22.10
2023-06-26T21:50:23.544Z,22.20
2023-06-26T21:52:50.857Z,22.20
2023-06-26T21:55:18.120Z,22.20
2023-06-26T21:57:45.331Z,22.20
2023-06-26T22:00:16.516Z,22.20
2023-06-26T22:02:43.868Z,22.40
2023-06-26T22:05:12.015Z,22.80
2023-06-26T22:07:47.091Z,22.80
2023-06-26T22:10:22.858Z,23.10
2023-06-26T22:12:50.164Z,23.10
2023-06-26T22:15:17.506Z,23.20
2023-06-26T22:17:56.486Z,23.10
2023-06-26T22:20:24.584Z,22.80
2023-06-26T22:22:52.492Z,22.90
2023-06-26T22:25:20.523Z,23.10
2023-06-26T22:27:49.995Z,23.20
2023-06-26T22:30:18.632Z,23.00
2023-06-26T22:32:46.621Z,23.10
2023-06-26T22:35:14.522Z,22.90
2023-06-26T22:37:42.112Z,22.50
2023-06-26T22:40:12.178Z,22.20
2023-06-26T22:42:40.485Z,22.40
2023-06-26T22:45:09.591Z,22.30
2023-06-26T22:47:37.946Z,22.30
2023-06-26T22:50:06.971Z,22.30
2023-06-26T22:52:34.226Z,22.20
2023-06-26T22:55:01.654Z,22.40
2023-06-26T22:57:29.401Z,22.30
2023-06-26T22:59:56.630Z,22.50
2023-06-26T23:02:24.049Z,22.50
2023-06-26T23:04:51.442Z,22.50
2023-06-26T23:07:21.176Z,22.70
2023-06-26T23:09:49.700Z,22.50
2023-06-26T23:12:17.276Z,22.50
2023-06-26T23:14:44.667Z,22.60
2023-06-26T23:17:12.674Z,22.60
2023-06-26T23:19:41.791Z,22.90
2023-06-26T23:22:12.471Z,22.70
2023-06-26T23:24:41.211Z,22.80
2023-06-26T23:27:11.454Z,22.70
2023-06-26T23:29:40.261Z,22.40
2023-06-26T23:32:08.549Z,22.60
2023-06-26T23:34:40.305Z,22.30
2023-06-26T23:37:09.206Z,22.50
2023-06-26T23:39:39.495Z,22.70
2023-06-26T23:42:07.548Z,22.80
2023-06-26T23:44:35.295Z,22.80
2023-06-26T23:47:07.042Z,22.20
2023-06-26T23:49:36.150Z,22.00
2023-06-26T23:52:04.340Z,21.90
2023-06-26T23:54:32.323Z,21.90
2023-06-26T23:56:59.969Z,22.00
2023-06-26T23:59:27.316Z,22.20
